Time;durP1;ratioP1;P1;durP2;ratioP2;P2;SDS_P1;SDS_P2;PMS_P1;PMS_P2;Temp;Humidity;BMP_temperature;BMP_pressure;BME280_temperature;BME280_humidity;BME280_pressure;Samples;Min_cycle;Max_cycle;Signal;HPM_P1;HPM_P2
2022/09/19 00:01:12;;;;;;;9.38;1.67;;;9.90;99.90;;;;;;5051480;28;20013;-69
2022/09/19 00:03:40;;;;;;;9.50;2.28;;;9.90;99.90;;;;;;5053593;28;20029;-71
2022/09/19 00:06:06;;;;;;;12.10;2.13;;;9.90;99.90;;;;;;5053376;28;20017;-69
2022/09/19 00:08:32;;;;;;;8.32;1.85;;;9.90;99.90;;;;;;5052652;28;20044;-71
2022/09/19 00:11:01;;;;;;;9.75;2.17;;;9.90;99.90;;;;;;5053174;28;20029;-70
2022/09/19 00:13:28;;;;;;;10.48;1.90;;;9.90;99.90;;;;;;5053626;28;20057;-68
2022/09/19 00:15:53;;;;;;;6.97;1.60;;;10.00;99.90;;;;;;5052386;28;20025;-71
2022/09/19 00:18:19;;;;;;;8.07;2.10;;;10.10;99.90;;;;;;5053219;28;20032;-70
2022/09/19 00:20:45;;;;;;;10.50;1.90;;;10.10;99.90;;;;;;5053100;28;20021;-70
2022/09/19 00:26:06;;;;;;;8.23;1.70;;;10.10;99.90;;;;;;5052853;28;20036;-68
2022/09/19 00:28:32;;;;;;;6.55;1.73;;;10.00;99.90;;;;;;5053339;28;20028;-68
2022/09/19 00:30:59;;;;;;;9.18;1.95;;;10.10;99.90;;;;;;5052105;28;20410;-68
2022/09/19 00:33:30;;;;;;;9.68;2.33;;;10.10;99.90;;;;;;5053076;28;20036;-68
2022/09/19 00:36:03;;;;;;;6.50;2.05;;;10.00;99.90;;;;;;5051568;28;20025;-68
2022/09/19 00:38:30;;;;;;;9.65;1.83;;;10.00;99.90;;;;;;5052997;28;20104;-67
2022/09/19 00:40:56;;;;;;;8.13;1.48;;;9.90;99.90;;;;;;5085062;28;20035;-68
2022/09/19 00:43:25;;;;;;;5.97;1.67;;;9.90;99.90;;;;;;5084396;28;20032;-70
2022/09/19 00:45:51;;;;;;;7.85;1.65;;;9.90;99.90;;;;;;5052272;28;20545;-70
2022/09/19 00:48:21;;;;;;;8.35;1.70;;;9.80;99.90;;;;;;5085075;28;20059;-71
2022/09/19 00:50:50;;;;;;;11.05;4.22;;;9.80;99.90;;;;;;5052151;28;20032;-70
2022/09/19 00:53:21;;;;;;;6.75;1.85;;;9.80;99.90;;;;;;5052420;28;20053;-70
2022/09/19 00:55:50;;;;;;;7.32;1.58;;;9.80;99.90;;;;;;5084647;28;20039;-70
2022/09/19 00:58:29;;;;;;;8.00;1.98;;;9.80;99.90;;;;;;5084246;28;20025;-69
2022/09/19 01:00:57;;;;;;;12.30;1.92;;;9.80;99.90;;;;;;5052206;28;20071;-70
2022/09/19 01:03:24;;;;;;;15.18;1.80;;;9.80;99.90;;;;;;5052411;28;20017;-69
2022/09/19 01:06:15;;;;;;;8.10;1.50;;;9.80;99.90;;;;;;5051654;28;20052;-70
2022/09/19 01:09:14;;;;;;;11.45;2.00;;;9.90;99.90;;;;;;5052441;28;20036;-69
2022/09/19 01:11:58;;;;;;;11.23;1.83;;;9.90;99.90;;;;;;5051527;28;20382;-69
2022/09/19 01:14:39;;;;;;;8.00;1.85;;;9.90;99.90;;;;;;5052283;28;20032;-69
2022/09/19 01:17:24;;;;;;;6.10;1.30;;;10.00;99.90;;;;;;5050655;28;20508;-68
2022/09/19 01:19:59;;;;;;;7.78;1.60;;;9.90;99.90;;;;;;5083576;28;20047;-70
2022/09/19 01:23:06;;;;;;;8.23;1.67;;;10.00;99.90;;;;;;5050743;28;20082;-70
2022/09/19 01:25:47;;;;;;;9.40;1.67;;;10.00;99.90;;;;;;5048346;28;20807;-69
2022/09/19 01:28:18;;;;;;;9.57;1.70;;;10.00;99.90;;;;;;5052054;28;20108;-69
2022/09/19 01:31:16;;;;;;;;;;;10.10;99.90;;;;;;5052380;28;20021;-69
2022/09/19 01:33:54;;;;;;;8.02;1.30;;;10.10;99.90;;;;;;5051103;28;19916;-69
2022/09/19 01:36:26;;;;;;;6.82;2.22;;;10.00;99.90;;;;;;5052079;28;20179;-69
2022/09/19 01:38:53;;;;;;;7.47;1.70;;;10.00;99.90;;;;;;5083720;28;20481;-69
2022/09/19 01:41:21;;;;;;;10.88;1.63;;;10.00;99.90;;;;;;5083413;28;20140;-70
2022/09/19 01:43:48;;;;;;;9.27;1.92;;;9.90;99.90;;;;;;5050148;28;20025;-69
2022/09/19 01:46:23;;;;;;;8.32;1.85;;;9.90;99.90;;;;;;5048867;28;20072;-69
2022/09/19 01:48:53;;;;;;;8.45;1.83;;;9.90;99.90;;;;;;5051342;28;20021;-70
2022/09/19 01:51:37;;;;;;;9.52;1.60;;;9.90;99.90;;;;;;5083455;28;20025;-70
2022/09/19 01:54:33;;;;;;;12.25;2.75;;;9.90;99.90;;;;;;5050617;28;20029;-69
2022/09/19 01:57:35;;;;;;;5.95;1.52;;;9.80;99.90;;;;;;5083307;28;20021;-70
2022/09/19 02:00:14;;;;;;;7.07;1.83;;;9.80;99.90;;;;;;5050964;28;20475;-70
2022/09/19 02:03:16;;;;;;;8.32;1.77;;;9.80;99.90;;;;;;5051380;28;20029;-70
2022/09/19 02:05:55;;;;;;;7.00;1.40;;;9.90;99.90;;;;;;5051606;28;20091;-69
2022/09/19 02:08:31;;;;;;;8.75;1.48;;;9.80;99.90;;;;;;5050661;28;20502;-70
2022/09/19 02:11:18;;;;;;;7.97;1.30;;;9.80;99.90;;;;;;5050947;28;20025;-69
2022/09/19 02:13:49;;;;;;;9.52;2.20;;;9.80;99.90;;;;;;5050972;28;20029;-69
2022/09/19 02:16:16;;;;;;;6.43;1.58;;;9.90;99.90;;;;;;5050843;28;20029;-69
2022/09/19 02:18:45;;;;;;;6.30;2.60;;;9.90;99.90;;;;;;5051355;28;20037;-69
2022/09/19 02:21:19;;;;;;;11.38;1.45;;;9.90;99.90;;;;;;5082848;28;20090;-69
2022/09/19 02:23:52;;;;;;;6.03;1.52;;;9.90;99.90;;;;;;5051233;28;20032;-68
2022/09/19 02:26:21;;;;;;;12.20;2.10;;;10.00;99.90;;;;;;5083575;28;20018;-68
2022/09/19 02:28:54;;;;;;;12.60;1.90;;;10.10;99.90;;;;;;5050098;28;20047;-69
2022/09/19 02:31:23;;;;;;;9.63;2.10;;;10.10;99.90;;;;;;5051119;28;20060;-69
2022/09/19 02:33:49;;;;;;;10.98;2.20;;;10.10;99.90;;;;;;5050655;28;20060;-69
2022/09/19 02:36:20;;;;;;;12.00;2.13;;;10.10;99.90;;;;;;5050395;28;20473;-68
2022/09/19 02:38:59;;;;;;;6.80;1.75;;;10.20;99.90;;;;;;5049510;28;20028;-69
2022/09/19 02:41:42;;;;;;;14.23;1.92;;;10.30;99.90;;;;;;5049844;28;20094;-68
2022/09/19 02:44:14;;;;;;;10.15;1.70;;;10.30;99.90;;;;;;5048911;28;20421;-69
2022/09/19 02:47:03;;;;;;;8.68;1.60;;;10.30;99.90;;;;;;5050987;28;20033;-70
2022/09/19 02:49:55;;;;;;;7.05;1.58;;;10.30;99.90;;;;;;5039062;28;20041;-69
2022/09/19 02:52:27;;;;;;;4.72;1.10;;;10.30;99.90;;;;;;5050865;28;20672;-68
2022/09/19 02:54:57;;;;;;;6.18;1.60;;;10.30;99.90;;;;;;5083002;28;20467;-68
2022/09/19 02:57:25;;;;;;;7.78;1.60;;;10.30;99.90;;;;;;5050636;28;20024;-67
2022/09/19 02:59:58;;;;;;;10.07;1.52;;;10.20;99.90;;;;;;5086731;28;20458;-68
2022/09/19 03:02:28;;;;;;;6.18;2.05;;;10.20;99.90;;;;;;5054867;28;20087;-69
2022/09/19 03:04:58;;;;;;;7.53;1.38;;;10.20;99.90;;;;;;5053503;28;20449;-69
2022/09/19 03:07:30;;;;;;;11.35;1.90;;;10.20;99.90;;;;;;5054714;28;20025;-69
2022/09/19 03:10:13;;;;;;;5.85;1.33;;;10.20;99.90;;;;;;5054479;28;20032;-70
2022/09/19 03:12:50;;;;;;;6.90;2.40;;;10.20;99.90;;;;;;5054154;28;20090;-69
2022/09/19 03:15:35;;;;;;;10.15;1.80;;;10.20;99.90;;;;;;5054839;28;20033;-70
2022/09/19 03:18:06;;;;;;;6.32;2.08;;;10.30;99.90;;;;;;5053624;28;20025;-69
2022/09/19 03:20:36;;;;;;;7.90;1.60;;;10.20;99.90;;;;;;5054580;28;20029;-69
2022/09/19 03:23:03;;;;;;;9.18;1.88;;;10.30;99.90;;;;;;5054089;28;20086;-70
2022/09/19 03:25:29;;;;;;;6.50;1.65;;;10.30;99.90;;;;;;5086180;28;20041;-69
2022/09/19 03:27:56;;;;;;;10.75;1.63;;;10.40;99.90;;;;;;5086278;28;20105;-70
2022/09/19 03:30:22;;;;;;;4.75;1.70;;;10.30;99.90;;;;;;5054666;28;20059;-70
2022/09/19 03:32:49;;;;;;;8.82;2.15;;;10.30;99.90;;;;;;5053352;28;20469;-68
2022/09/19 03:35:15;;;;;;;10.60;2.05;;;10.30;99.90;;;;;;5054205;28;20025;-69
2022/09/19 03:37:40;;;;;;;12.35;1.80;;;10.30;99.90;;;;;;5054159;28;20025;-70
2022/09/19 03:40:07;;;;;;;7.85;1.80;;;10.30;99.90;;;;;;5053174;28;20063;-70
2022/09/19 03:42:34;;;;;;;5.57;1.60;;;10.30;99.90;;;;;;5054025;28;20366;-70
2022/09/19 03:45:01;;;;;;;4.40;1.73;;;10.40;99.90;;;;;;5053435;28;20116;-69
2022/09/19 03:47:27;;;;;;;8.68;1.42;;;10.40;99.90;;;;;;5049376;28;20025;-70
2022/09/19 03:49:52;;;;;;;5.45;1.55;;;10.40;99.90;;;;;;5050042;28;20021;-70
2022/09/19 03:52:18;;;;;;;9.38;1.40;;;10.40;99.90;;;;;;5051765;28;20045;-70
2022/09/19 03:54:44;;;;;;;7.15;1.65;;;10.40;99.90;;;;;;5052697;28;20033;-69
2022/09/19 03:57:12;;;;;;;8.27;1.80;;;10.40;99.90;;;;;;5053412;28;20132;-70
2022/09/19 03:59:42;;;;;;;13.10;1.80;;;10.40;99.90;;;;;;5053223;28;20434;-69
2022/09/19 04:02:09;;;;;;;8.75;1.98;;;10.40;99.90;;;;;;5051930;28;20115;-69
2022/09/19 04:04:35;;;;;;;9.63;2.35;;;10.30;99.90;;;;;;5053664;28;20028;-69
2022/09/19 04:07:02;;;;;;;11.20;2.28;;;10.30;99.90;;;;;;5052788;28;20025;-70
2022/09/19 04:09:28;;;;;;;6.05;1.40;;;10.30;99.90;;;;;;5050936;28;20447;-68
2022/09/19 04:11:56;;;;;;;4.22;1.55;;;10.30;99.90;;;;;;5052388;28;20021;-69
2022/09/19 04:14:22;;;;;;;9.48;2.15;;;10.30;99.90;;;;;;5052412;28;20116;-70
2022/09/19 04:16:47;;;;;;;5.82;1.67;;;10.30;99.90;;;;;;5052293;28;20116;-68
2022/09/19 04:19:13;;;;;;;9.98;1.67;;;10.30;99.90;;;;;;5051933;28;20021;-70
2022/09/19 04:21:41;;;;;;;8.70;1.63;;;10.30;99.90;;;;;;5052834;28;20495;-69
2022/09/19 04:24:11;;;;;;;8.90;1.52;;;10.30;99.90;;;;;;5053276;28;20039;-70
2022/09/19 04:26:36;;;;;;;8.20;1.80;;;10.30;99.90;;;;;;5051334;28;20032;-70
2022/09/19 04:29:03;;;;;;;5.85;1.40;;;10.20;99.90;;;;;;5051968;28;20099;-70
2022/09/19 04:31:39;;;;;;;6.50;1.45;;;10.20;99.90;;;;;;5050694;28;20075;-70
2022/09/19 04:34:14;;;;;;;8.88;2.00;;;10.20;99.90;;;;;;5053871;28;20389;-70
2022/09/19 04:36:40;;;;;;;6.03;1.50;;;10.20;99.90;;;;;;5052729;28;20017;-70
2022/09/19 04:39:06;;;;;;;8.43;1.70;;;10.20;99.90;;;;;;5052317;28;20041;-68
2022/09/19 04:41:36;;;;;;;4.97;1.50;;;10.20;99.90;;;;;;5051085;28;20112;-68
2022/09/19 04:44:04;;;;;;;7.80;1.45;;;10.20;99.90;;;;;;5051093;28;20041;-68
2022/09/19 04:46:31;;;;;;;8.43;2.20;;;10.30;99.90;;;;;;5052827;28;20500;-69
2022/09/19 04:48:57;;;;;;;6.68;2.03;;;10.30;99.90;;;;;;5051676;28;20036;-68
2022/09/19 04:51:24;;;;;;;5.22;1.40;;;10.30;99.90;;;;;;5051836;28;20029;-69
2022/09/19 04:53:50;;;;;;;6.60;1.50;;;10.30;99.90;;;;;;5051486;28;20390;-69
2022/09/19 04:56:17;;;;;;;5.13;1.30;;;10.20;99.90;;;;;;5051816;28;20029;-69
2022/09/19 04:58:44;;;;;;;7.47;1.42;;;10.30;99.90;;;;;;5051160;28;20031;-69
2022/09/19 05:01:10;;;;;;;7.18;2.10;;;10.30;99.90;;;;;;5052356;28;20155;-69
2022/09/19 05:03:37;;;;;;;9.35;1.50;;;10.30;99.90;;;;;;5051692;28;20493;-69
2022/09/19 05:06:05;;;;;;;9.25;1.77;;;10.30;99.90;;;;;;5050790;28;20033;-70
2022/09/19 05:08:32;;;;;;;8.52;1.40;;;10.30;99.90;;;;;;5051125;28;20557;-69
2022/09/19 05:11:00;;;;;;;4.93;1.55;;;10.30;99.90;;;;;;5051227;28;20025;-69
2022/09/19 05:13:29;;;;;;;7.57;2.20;;;10.30;99.90;;;;;;5051507;28;20076;-70
2022/09/19 05:15:55;;;;;;;9.85;1.45;;;10.30;99.90;;;;;;5052078;28;20056;-69
2022/09/19 05:18:22;;;;;;;6.15;1.67;;;10.40;99.90;;;;;;5050413;28;20481;-70
2022/09/19 05:20:49;;;;;;;7.07;1.40;;;10.30;99.90;;;;;;5051851;28;20469;-70
2022/09/19 05:23:15;;;;;;;7.20;2.03;;;10.30;99.90;;;;;;5051605;28;20484;-70
2022/09/19 05:25:41;;;;;;;10.05;1.55;;;10.30;99.90;;;;;;5048917;28;20060;-70
2022/09/19 05:28:08;;;;;;;9.80;1.50;;;10.30;99.90;;;;;;5047897;28;20090;-68
2022/09/19 05:30:36;;;;;;;2.25;1.20;;;10.40;99.90;;;;;;5045452;28;20025;-70
2022/09/19 05:33:03;;;;;;;10.35;1.58;;;10.30;99.90;;;;;;5048116;28;20041;-70
2022/09/19 05:35:30;;;;;;;8.02;1.80;;;10.40;99.90;;;;;;5044455;28;20382;-71
2022/09/19 05:37:57;;;;;;;7.15;1.23;;;10.40;99.90;;;;;;5051414;28;20028;-71
2022/09/19 05:40:26;;;;;;;7.20;1.27;;;10.50;99.90;;;;;;5050037;28;20384;-72
2022/09/19 05:42:59;;;;;;;8.48;1.52;;;10.60;99.90;;;;;;5051581;28;20066;-72
2022/09/19 05:45:26;;;;;;;5.43;1.25;;;10.70;99.90;;;;;;5051519;28;20793;-70
2022/09/19 05:47:52;;;;;;;5.47;1.70;;;10.70;99.90;;;;;;5050017;28;20039;-71
2022/09/19 05:50:17;;;;;;;7.97;1.33;;;10.80;99.90;;;;;;5050934;28;20103;-72
2022/09/19 05:55:29;;;;;;;8.50;1.40;;;11.00;99.90;;;;;;5050759;28;20101;-71
2022/09/19 05:57:56;;;;;;;9.40;1.63;;;11.00;99.90;;;;;;5047954;28;20453;-72
2022/09/19 06:00:25;;;;;;;7.10;1.42;;;11.00;99.90;;;;;;5049639;28;20420;-70
2022/09/19 06:03:00;;;;;;;2.05;0.85;;;11.00;99.90;;;;;;5042609;28;20013;-70
2022/09/19 06:05:27;;;;;;;8.18;2.00;;;10.90;99.90;;;;;;5051166;28;20029;-71
2022/09/19 06:07:56;;;;;;;7.40;1.50;;;11.00;99.90;;;;;;5050381;28;20091;-70
2022/09/19 06:10:23;;;;;;;8.32;1.23;;;11.00;99.90;;;;;;5051344;28;20474;-70
2022/09/19 06:12:49;;;;;;;8.82;1.67;;;11.00;99.90;;;;;;5050916;28;20032;-70
2022/09/19 06:15:15;;;;;;;4.95;1.17;;;11.00;99.90;;;;;;5049315;28;20029;-70
2022/09/19 06:17:41;;;;;;;8.70;1.40;;;11.00;99.90;;;;;;5051216;28;20025;-70
2022/09/19 06:20:07;;;;;;;9.02;1.55;;;11.10;99.90;;;;;;5050756;28;20482;-70
2022/09/19 06:22:34;;;;;;;9.98;2.10;;;11.20;99.90;;;;;;5050569;28;20035;-70
2022/09/19 06:25:00;;;;;;;9.38;1.50;;;11.30;99.90;;;;;;5049810;28;20017;-71
2022/09/19 06:27:27;;;;;;;6.78;1.30;;;11.50;99.90;;;;;;5049655;28;20033;-71
2022/09/19 06:29:54;;;;;;;4.03;1.20;;;11.60;99.90;;;;;;5050759;28;20056;-70
2022/09/19 06:32:20;;;;;;;12.85;2.17;;;11.70;99.90;;;;;;5051015;28;20176;-69
2022/09/19 06:34:46;;;;;;;8.82;1.15;;;11.80;99.90;;;;;;5052878;28;20039;-70
2022/09/19 06:37:12;;;;;;;8.10;1.35;;;11.80;99.90;;;;;;5055401;28;20100;-69
2022/09/19 06:39:38;;;;;;;7.65;2.03;;;11.80;99.90;;;;;;5054151;28;20424;-69
2022/09/19 06:42:04;;;;;;;8.73;1.38;;;11.80;99.90;;;;;;5054101;28;20074;-70
2022/09/19 06:44:30;;;;;;;3.80;1.20;;;11.90;99.90;;;;;;5055602;28;20028;-69
2022/09/19 06:46:56;;;;;;;6.30;1.13;;;11.90;99.90;;;;;;5054712;28;20473;-70
2022/09/19 06:49:21;;;;;;;6.97;1.52;;;11.90;99.90;;;;;;5054222;28;20020;-69
2022/09/19 06:51:47;;;;;;;3.83;1.52;;;11.90;99.90;;;;;;5054606;28;20045;-69
2022/09/19 06:54:13;;;;;;;8.77;1.95;;;11.90;99.90;;;;;;5055037;28;20111;-69
2022/09/19 06:56:40;;;;;;;11.27;1.55;;;12.00;99.90;;;;;;5054390;28;20108;-70
2022/09/19 06:59:06;;;;;;;7.05;1.42;;;12.20;99.90;;;;;;5054476;28;20071;-70
2022/09/19 07:01:33;;;;;;;8.30;1.30;;;12.30;99.90;;;;;;5054775;28;20029;-70
2022/09/19 07:03:58;;;;;;;13.38;1.58;;;12.50;99.90;;;;;;5053858;28;20040;-70
2022/09/19 07:06:24;;;;;;;6.03;1.95;;;12.60;99.90;;;;;;5054823;28;20060;-70
2022/09/19 07:08:50;;;;;;;4.30;1.17;;;12.60;99.90;;;;;;5054163;28;20106;-70
2022/09/19 07:11:15;;;;;;;5.07;1.40;;;12.70;99.90;;;;;;5054286;28;20025;-70
2022/09/19 07:13:41;;;;;;;3.47;1.23;;;12.70;99.90;;;;;;5054691;28;20073;-70
2022/09/19 07:16:07;;;;;;;7.15;1.58;;;12.80;99.90;;;;;;5054054;28;20021;-70
2022/09/19 07:18:36;;;;;;;8.60;2.10;;;12.90;99.90;;;;;;5053899;28;20037;-70
2022/09/19 07:21:02;;;;;;;6.82;1.50;;;12.90;99.90;;;;;;5053937;28;20053;-70
2022/09/19 07:23:28;;;;;;;3.80;1.48;;;13.00;99.90;;;;;;5054378;28;20025;-70
2022/09/19 07:25:55;;;;;;;5.40;1.10;;;13.00;99.90;;;;;;5053577;28;20021;-70
2022/09/19 07:28:22;;;;;;;8.00;2.20;;;13.00;99.90;;;;;;5053079;28;20433;-70
2022/09/19 07:30:48;;;;;;;3.95;0.82;;;13.10;99.90;;;;;;5053267;28;20080;-70
2022/09/19 07:33:16;;;;;;;8.45;1.30;;;13.10;99.90;;;;;;5054065;28;20032;-70
2022/09/19 07:35:42;;;;;;;4.28;1.20;;;13.20;99.90;;;;;;5052868;28;20200;-70
2022/09/19 07:38:15;;;;;;;6.22;1.00;;;13.30;99.90;;;;;;5053020;28;20116;-70
2022/09/19 07:40:42;;;;;;;6.85;1.10;;;13.30;99.90;;;;;;5054265;28;20029;-69
2022/09/19 07:43:12;;;;;;;4.53;0.80;;;13.30;99.90;;;;;;5053681;28;20028;-69
2022/09/19 07:45:39;;;;;;;6.03;1.25;;;13.30;99.90;;;;;;5053483;28;20025;-69
2022/09/19 07:48:05;;;;;;;3.35;0.75;;;13.30;99.90;;;;;;5053263;28;20033;-69
2022/09/19 07:50:31;;;;;;;5.68;1.15;;;13.30;99.90;;;;;;5054163;28;20028;-69
2022/09/19 07:53:05;;;;;;;3.28;0.95;;;13.30;99.90;;;;;;5052530;28;20045;-69
2022/09/19 07:55:31;;;;;;;7.40;1.02;;;13.30;99.90;;;;;;5053841;28;20033;-70
2022/09/19 07:57:58;;;;;;;7.63;1.58;;;13.20;99.90;;;;;;5053290;28;20028;-70
2022/09/19 08:00:26;;;;;;;6.18;1.67;;;13.10;99.90;;;;;;5052084;28;20048;-69
2022/09/19 08:03:10;;;;;;;4.63;1.00;;;13.10;99.90;;;;;;5053248;28;20032;-69
2022/09/19 08:05:43;;;;;;;5.20;1.08;;;13.10;99.90;;;;;;5053548;28;20022;-69
2022/09/19 08:08:10;;;;;;;5.88;1.40;;;13.20;99.90;;;;;;5051429;28;20025;-70
2022/09/19 08:10:38;;;;;;;6.32;1.15;;;13.30;99.90;;;;;;5052036;28;20071;-70
2022/09/19 08:13:05;;;;;;;6.25;1.40;;;13.30;99.90;;;;;;5052445;28;20029;-70
2022/09/19 08:15:35;;;;;;;14.13;1.60;;;13.60;99.90;;;;;;5053255;28;20569;-69
2022/09/19 08:18:02;;;;;;;4.18;1.40;;;13.80;99.90;;;;;;5053083;28;20150;-70
2022/09/19 08:20:31;;;;;;;4.88;1.30;;;14.00;99.90;;;;;;5052921;28;20028;-69
2022/09/19 08:23:01;;;;;;;6.43;1.60;;;14.20;99.90;;;;;;5052985;28;20036;-70
2022/09/19 08:25:30;;;;;;;13.95;2.00;;;14.30;99.90;;;;;;5053338;28;20060;-69
2022/09/19 08:27:56;;;;;;;5.68;1.27;;;14.40;99.90;;;;;;5052241;28;20049;-69
2022/09/19 08:30:23;;;;;;;8.93;1.63;;;14.50;99.90;;;;;;5051948;28;20493;-68
2022/09/19 08:32:49;;;;;;;7.07;1.40;;;14.50;99.90;;;;;;5052584;28;20028;-69
2022/09/19 08:35:16;;;;;;;6.45;1.40;;;14.40;99.90;;;;;;5052435;28;20044;-69
2022/09/19 08:37:43;;;;;;;4.72;1.00;;;14.30;99.90;;;;;;5051563;28;20453;-69
2022/09/19 08:40:30;;;;;;;6.47;1.48;;;14.30;99.90;;;;;;5051297;28;20354;-69
2022/09/19 08:43:21;;;;;;;1.77;0.80;;;14.10;99.80;;;;;;5051833;28;20102;-69
2022/09/19 08:46:15;;;;;;;2.67;1.00;;;14.00;99.90;;;;;;5052682;28;20032;-69
2022/09/19 08:49:15;;;;;;;3.65;1.15;;;13.90;99.90;;;;;;5050731;28;20038;-70
2022/09/19 08:52:01;;;;;;;3.13;1.13;;;13.90;99.90;;;;;;5052941;28;20041;-69
2022/09/19 08:54:30;;;;;;;8.18;1.80;;;14.00;99.90;;;;;;5051261;28;20044;-70
2022/09/19 08:56:57;;;;;;;9.55;1.33;;;14.10;99.60;;;;;;5049631;28;20116;-70
2022/09/19 08:59:25;;;;;;;8.13;1.15;;;14.10;99.60;;;;;;5051091;28;20532;-70
2022/09/19 09:01:57;;;;;;;3.95;1.15;;;14.20;98.80;;;;;;5051978;28;20135;-70
2022/09/19 09:04:30;;;;;;;7.78;1.50;;;14.30;98.50;;;;;;5050649;28;20044;-70
2022/09/19 09:07:32;;;;;;;6.30;1.08;;;14.40;99.10;;;;;;5050640;28;20096;-69
2022/09/19 09:10:22;;;;;;;3.38;1.05;;;14.60;99.10;;;;;;5049881;28;20670;-70
2022/09/19 09:13:08;;;;;;;4.65;1.00;;;14.70;97.30;;;;;;5051626;28;20473;-70
2022/09/19 09:16:12;;;;;;;8.13;1.48;;;14.80;97.20;;;;;;5050724;28;20021;-70
2022/09/19 09:19:02;;;;;;;4.32;1.00;;;15.00;97.00;;;;;;5041098;28;20175;-70
2022/09/19 09:21:41;;;;;;;5.27;1.20;;;15.10;97.10;;;;;;5050968;28;20028;-69
2022/09/19 09:24:17;;;;;;;4.95;1.20;;;15.40;96.40;;;;;;5051249;28;20025;-70
2022/09/19 09:26:46;;;;;;;4.90;0.98;;;15.60;95.60;;;;;;5052172;28;20024;-70
2022/09/19 09:29:34;;;;;;;3.33;0.90;;;15.90;94.90;;;;;;5051952;28;20025;-70
2022/09/19 09:32:08;;;;;;;4.30;0.90;;;16.00;93.90;;;;;;5051288;28;20040;-70
2022/09/19 09:34:36;;;;;;;3.38;0.90;;;16.10;93.00;;;;;;5052015;28;20094;-70
2022/09/19 09:37:10;;;;;;;4.68;1.40;;;16.00;93.10;;;;;;5051529;28;20025;-70
2022/09/19 09:39:58;;;;;;;3.70;1.00;;;15.90;93.10;;;;;;5051502;28;20021;-70
2022/09/19 09:42:37;;;;;;;3.65;0.80;;;15.70;94.30;;;;;;5052008;28;20453;-70
2022/09/19 09:45:14;;;;;;;4.63;1.00;;;15.40;95.60;;;;;;5050889;28;20032;-70
2022/09/19 09:47:58;;;;;;;5.28;1.73;;;15.10;96.10;;;;;;5051783;28;20044;-70
2022/09/19 09:50:44;;;;;;;2.80;1.10;;;14.80;96.80;;;;;;5051709;28;20021;-70
2022/09/19 09:53:29;;;;;;;3.00;0.73;;;14.60;96.90;;;;;;5050785;28;20095;-70
2022/09/19 09:56:17;;;;;;;3.90;0.93;;;14.40;97.70;;;;;;5050954;28;20052;-70
2022/09/19 09:59:09;;;;;;;2.38;1.10;;;14.40;98.40;;;;;;5050862;28;20023;-70
2022/09/19 10:04:53;;;;;;;4.05;0.98;;;14.50;98.40;;;;;;5051674;28;20038;-69
2022/09/19 10:07:39;;;;;;;2.35;0.70;;;14.60;98.40;;;;;;5048411;28;20546;-69
2022/09/19 10:10:14;;;;;;;3.70;0.65;;;14.60;98.20;;;;;;5051121;28;20083;-69
2022/09/19 10:12:58;;;;;;;1.58;0.95;;;14.70;98.40;;;;;;5049499;28;20035;-70
2022/09/19 10:15:25;;;;;;;3.70;0.70;;;14.70;97.80;;;;;;5049943;28;20029;-69
2022/09/19 10:18:09;;;;;;;4.60;1.10;;;14.60;97.90;;;;;;5049151;28;20494;-69
2022/09/19 10:20:38;;;;;;;1.20;0.70;;;14.50;97.70;;;;;;5049232;28;20513;-69
2022/09/19 10:23:11;;;;;;;3.20;0.68;;;14.40;98.10;;;;;;5050836;28;20045;-69
2022/09/19 10:25:37;;;;;;;1.98;0.75;;;14.40;98.10;;;;;;5051189;28;20025;-70
2022/09/19 10:28:41;;;;;;;1.38;0.60;;;14.40;97.70;;;;;;5050016;28;20481;-69
2022/09/19 10:31:31;;;;;;;1.13;0.60;;;14.40;97.70;;;;;;5039491;28;20116;-69
2022/09/19 10:34:03;;;;;;;4.53;1.02;;;14.50;98.10;;;;;;5048789;28;20039;-69
2022/09/19 10:36:33;;;;;;;4.75;0.75;;;14.60;97.30;;;;;;5051008;28;20059;-70
2022/09/19 10:39:09;;;;;;;5.28;0.80;;;14.70;96.70;;;;;;5050669;28;20520;-69
2022/09/19 10:41:35;;;;;;;3.55;1.10;;;14.70;96.70;;;;;;5049230;28;20389;-69
2022/09/19 10:44:06;;;;;;;2.42;0.82;;;14.80;97.10;;;;;;5050720;28;20449;-69
2022/09/19 10:46:35;;;;;;;4.45;1.20;;;14.90;96.30;;;;;;5051332;28;20090;-69
2022/09/19 10:49:05;;;;;;;2.78;0.80;;;14.90;96.40;;;;;;5048473;28;20033;-69
2022/09/19 10:51:41;;;;;;;4.72;1.10;;;15.00;97.00;;;;;;5049472;28;20056;-69
2022/09/19 10:54:20;;;;;;;6.60;1.20;;;15.20;96.60;;;;;;5050655;28;20082;-69
2022/09/19 10:56:45;;;;;;;5.28;1.05;;;15.30;96.10;;;;;;5050150;28;20032;-69
2022/09/19 10:59:12;;;;;;;7.63;1.38;;;15.40;94.60;;;;;;5051344;28;20025;-70
2022/09/19 11:01:39;;;;;;;4.68;0.90;;;15.50;94.90;;;;;;5051385;28;20028;-70
2022/09/19 11:04:22;;;;;;;2.60;0.70;;;15.70;94.60;;;;;;5050687;28;20097;-70
2022/09/19 11:07:13;;;;;;;5.32;1.02;;;16.00;93.80;;;;;;5047957;28;20021;-69
2022/09/19 11:09:39;;;;;;;5.40;1.02;;;16.20;92.90;;;;;;5049507;28;20030;-70
2022/09/19 11:12:10;;;;;;;3.88;0.73;;;16.30;92.10;;;;;;5049440;28;20449;-69
2022/09/19 11:14:37;;;;;;;2.95;0.60;;;16.20;91.20;;;;;;5050014;28;20037;-69
2022/09/19 11:17:29;;;;;;;1.20;0.52;;;16.20;90.00;;;;;;5050271;28;20467;-69
2022/09/19 11:20:14;;;;;;;;;;;16.10;84.30;;;;;;5053423;28;20021;-70
2022/09/19 11:22:52;;;;;;;1.60;0.55;;;16.10;85.70;;;;;;5053938;28;20380;-70
2022/09/19 11:25:31;;;;;;;3.72;0.70;;;16.20;86.80;;;;;;5053000;28;20021;-69
2022/09/19 11:28:18;;;;;;;1.88;0.95;;;16.30;86.20;;;;;;5053717;28;20021;-70
2022/09/19 11:31:15;;;;;;;3.75;0.75;;;16.30;85.20;;;;;;5054322;28;20517;-70
2022/09/19 11:33:55;;;;;;;2.13;0.50;;;16.50;86.20;;;;;;5054267;28;20036;-69
2022/09/19 11:36:54;;;;;;;0.73;0.52;;;16.60;86.00;;;;;;5053886;28;20062;-70
2022/09/19 11:39:51;;;;;;;2.90;0.65;;;16.70;87.10;;;;;;5052588;28;20052;-70
2022/09/19 11:42:29;;;;;;;5.30;0.98;;;16.80;85.10;;;;;;5052167;28;20025;-70
2022/09/19 11:45:14;;;;;;;4.38;0.95;;;16.70;84.10;;;;;;5052339;28;20021;-70
2022/09/19 11:48:05;;;;;;;3.03;0.80;;;16.60;86.80;;;;;;5053817;28;20437;-70
2022/09/19 11:50:32;;;;;;;1.50;0.70;;;16.60;83.30;;;;;;5051816;28;20025;-70
2022/09/19 11:53:30;;;;;;;2.33;0.80;;;16.50;83.20;;;;;;5052955;28;20459;-70
2022/09/19 11:56:17;;;;;;;4.78;1.02;;;16.50;85.50;;;;;;5053368;28;20029;-70
2022/09/19 11:58:51;;;;;;;3.17;0.73;;;16.60;84.00;;;;;;5052462;28;20032;-70
2022/09/19 12:01:21;;;;;;;3.90;0.80;;;16.50;83.80;;;;;;5053625;28;20076;-70
2022/09/19 12:04:10;;;;;;;0.80;0.50;;;16.40;85.10;;;;;;5051482;28;20039;-70
2022/09/19 12:06:56;;;;;;;3.92;1.10;;;16.50;85.50;;;;;;5052348;28;20029;-71
2022/09/19 12:09:32;;;;;;;5.25;0.70;;;16.50;82.50;;;;;;5052212;28;20500;-70
2022/09/19 12:12:11;;;;;;;4.18;1.13;;;16.50;83.70;;;;;;5052923;28;20365;-70
2022/09/19 12:15:16;;;;;;;2.10;0.90;;;16.40;82.60;;;;;;5053329;28;20033;-70
2022/09/19 12:17:51;;;;;;;2.55;1.20;;;16.20;82.10;;;;;;5045314;28;20057;-70
2022/09/19 12:20:34;;;;;;;3.97;0.93;;;16.20;83.40;;;;;;5053408;28;20037;-70
2022/09/19 12:25:59;;;;;;;2.30;0.70;;;16.20;85.10;;;;;;5052645;28;20167;-69
2022/09/19 12:28:36;;;;;;;5.65;0.80;;;16.20;83.30;;;;;;5053192;28;20032;-69
2022/09/19 12:31:08;;;;;;;3.42;0.52;;;16.20;84.00;;;;;;5052021;28;20024;-69
2022/09/19 12:33:51;;;;;;;1.52;0.50;;;16.30;83.70;;;;;;5052795;28;20025;-70
2022/09/19 12:36:29;;;;;;;1.20;0.68;;;16.30;83.80;;;;;;5053043;28;20500;-69
2022/09/19 12:39:07;;;;;;;4.20;0.70;;;16.60;83.50;;;;;;5052197;28;20576;-69
2022/09/19 12:41:45;;;;;;;1.70;0.60;;;16.80;81.30;;;;;;5053186;28;20023;-69
2022/09/19 12:44:38;;;;;;;1.75;0.50;;;17.00;80.20;;;;;;5052982;28;20362;-70
2022/09/19 12:47:43;;;;;;;3.00;0.63;;;17.20;78.70;;;;;;5051832;28;20025;-69
2022/09/19 12:50:20;;;;;;;2.40;0.50;;;17.20;79.50;;;;;;5049949;28;20044;-69
2022/09/19 12:53:02;;;;;;;3.75;0.65;;;17.40;78.10;;;;;;5051835;28;20049;-69
2022/09/19 12:55:39;;;;;;;4.55;0.95;;;17.60;76.40;;;;;;5052986;28;20037;-70
2022/09/19 12:58:16;;;;;;;5.95;0.93;;;17.50;83.00;;;;;;5050704;28;20052;-75
2022/09/19 13:00:43;;;;;;;1.90;0.80;;;16.00;92.00;;;;;;5051294;28;20560;-76
2022/09/19 13:03:12;;;;;;;1.90;0.63;;;14.40;96.50;;;;;;5051331;28;20082;-75
2022/09/19 13:05:43;;;;;;;0.98;0.60;;;13.70;99.90;;;;;;5052860;28;20112;-74
2022/09/19 13:08:26;;;;;;;1.73;0.65;;;13.30;99.90;;;;;;5050571;28;20012;-74
2022/09/19 13:10:58;;;;;;;3.60;0.70;;;13.20;99.90;;;;;;5046730;28;20028;-74
2022/09/19 13:13:31;;;;;;;1.38;0.47;;;13.20;99.90;;;;;;5051510;28;20162;-73
2022/09/19 13:16:06;;;;;;;5.68;0.70;;;13.20;99.90;;;;;;5052246;28;20021;-74
2022/09/19 13:24:12;;;;;;;1.75;0.68;;;13.40;99.90;;;;;;5052760;28;20133;-73
2022/09/19 13:26:38;;;;;;;3.50;0.60;;;13.50;99.90;;;;;;5051204;28;20025;-73
2022/09/19 13:29:36;;;;;;;2.08;0.77;;;13.50;99.90;;;;;;5051173;28;20381;-73
2022/09/19 13:32:04;;;;;;;2.88;0.60;;;13.50;99.90;;;;;;5051866;28;20494;-73
2022/09/19 13:34:39;;;;;;;2.75;0.65;;;13.50;99.90;;;;;;5051513;28;20035;-74
2022/09/19 13:37:26;;;;;;;3.30;0.80;;;13.60;99.90;;;;;;5050763;28;20021;-74